Airfield :
LOGIN :

Register | Disclaimer

   EN    FR    IT 

 










Legend :    VFR   Marginal VFR   IFR   Intensive IFR   Very Intensive IFR
Visi :
Ceiling :
>= 8 km
>= 3000ft
5 to 8 km
1000 to 3000 ft
1500m to 5 km
500 to 1000 ft
800 to 1500m
200 to 500 ft
< 800m
< 200 ft
Symbols :   Thunderstorms  Fog  Heavy snow  Heavy precipitations  Wind > 20 kt
SIGMETs :     Misc.  Thunderstorms  Icing  Turbulence  Mountain Waves  Volcanic Ashes






- Airport Elevation : 1161 ft
- IATA code : RJL


LELO - Logroño-Agoncillo

CURRENT METAR :
  • 050830Z VRB01KT 9999 FEW050 21/14 Q1017

EXPIRED METARs :
  • 050800Z VRB02KT 9999 FEW040 20/13 Q1017
  • 050730Z 25003KT 210V330 9999 FEW040 19/13 Q1017
  • 050700Z VRB02KT 9999 FEW040 17/13 Q1017
  • 050630Z VRB02KT 9999 FEW040 16/13 Q1017
  • 050600Z 00000KT CAVOK 15/13 Q1017

TAF TAF LELO
Valid from the 05 at 09:00 until the 06 at 09:00 UTC


050800Z 0509/0609 VRB05KT 9999 FEW025 TX34/0515Z TN17/0605Z
BECMG 0516/0518 34010KT
PROB30
TEMPO 0518/0520 33012G25KT
TEMPO 0605/0609 VRB05KT



MET'MAP, your aeronautical weather chart ! - Copyright ORBIFLY December 2007 - Disclaimer

ORBIFLY MET'MAP TEAM :

Programming & Development : Alexandra Zaïnal
Concept & original design : Baudouin d'Aumeries
Assistance for programming : Marc-Olivier Méhu
Technical & hardware support : Manuel Goepfert

Contact : metmap@orbifly.com




SOURCES & CREDITS :

   NOAA